ENBR/BGO METAR and TAF weather

Enter ICAO airport designator
Station Type Date Time Source
ENBR METAR 2018/12/13 15:20 UTC NOAA

ENBR 131520Z 12005KT 9999 FEW025 00/M06 Q1030 NOSIG RMK WIND 1200FT 13012KT


Station Type Date Time Source
ENBR Decoded METAR 2018/12/13 15:20 UTC NOAA

Bergen / Flesland, Norway (ENBR) 60-17N 005-14E 50M
Dec 13, 2018 - 10:20 AM EST / 2018.12.13 1520 UTC
Wind: from the ESE (120 degrees) at 6 MPH (5 KT):0
Visibility: greater than 7 mile(s):0
Sky conditions: mostly clear
Temperature: 32 F (0 C)
Windchill: 26 F (-3 C):1
Dew Point: 21 F (-6 C)
Relative Humidity: 63%
Pressure (altimeter): 30.42 in. Hg (1030 hPa)
ob: ENBR 131520Z 12005KT 9999 FEW025 00/M06 Q1030 NOSIG RMK WIND 1200FT 13012KT
cycle: 15

Station Type Date Time Source
ENBR TAF 2018/12/13 12:57 UTC NOAA

TAF ENBR 131100Z 1312/1412 13006KT 9999 FEW030


Example: see airport list